Time,TemperatureF,DewpointF,PressureIn,WindDirection,WindDirectionDegrees,WindSpeedMPH,WindSpeedGustMPH,Humidity,HourlyPrecipIn,Conditions,Clouds,dailyrainin,SoftwareType,DateUTC
2013-06-23 00:11:00,69.7,66.0,30.15,WSW,242,1.0,2.0,88,0.00,,,0.00,weatherlink.com 1.10,2013-06-23 04:11:00,
2013-06-23 00:26:00,69.6,67.0,30.15,SW,219,0.0,2.0,90,0.00,,,0.00,weatherlink.com 1.10,2013-06-23 04:26:00,
2013-06-23 00:41:00,69.6,67.0,30.15,SW,232,0.0,1.0,90,0.00,,,0.00,weatherlink.com 1.10,2013-06-23 04:41:00,
2013-06-23 00:56:00,69.2,67.0,30.14,West,276,1.0,2.0,91,0.00,,,0.00,weatherlink.com 1.10,2013-06-23 04:56:00,
2013-06-23 01:11:00,69.2,67.0,30.14,SW,220,1.0,3.0,91,0.00,,,0.00,weatherlink.com 1.10,2013-06-23 05:11:00,
2013-06-23 01:26:00,69.1,66.0,30.14,WSW,238,0.0,2.0,91,0.00,,,0.00,weatherlink.com 1.10,2013-06-23 05:26:00,
2013-06-23 01:41:00,68.8,66.0,30.13,West,263,1.0,3.0,91,0.00,,,0.00,weatherlink.com 1.10,2013-06-23 05:41:00,
2013-06-23 01:56:00,68.1,66.0,30.13,WSW,245,0.0,1.0,92,0.00,,,0.00,weatherlink.com 1.10,2013-06-23 05:56:00,
2013-06-23 02:11:00,67.7,66.0,30.11,WNW,297,1.0,2.0,93,0.00,,,0.00,weatherlink.com 1.10,2013-06-23 06:11:00,
2013-06-23 02:26:00,67.2,66.0,30.11,West,278,0.0,2.0,94,0.00,,,0.00,weatherlink.com 1.10,2013-06-23 06:26:00,
2013-06-23 02:41:00,67.2,66.0,30.10,WSW,254,0.0,2.0,94,0.00,,,0.00,weatherlink.com 1.10,2013-06-23 06:41:00,
2013-06-23 02:56:00,67.1,65.0,30.10,WSW,242,0.0,1.0,94,0.00,,,0.00,weatherlink.com 1.10,2013-06-23 06:56:00,
2013-06-23 03:11:00,66.6,65.0,30.09,SE,146,0.0,1.0,95,0.00,,,0.00,weatherlink.com 1.10,2013-06-23 07:11:00,
2013-06-23 03:26:00,66.6,65.0,30.09,SE,141,0.0,1.0,95,0.00,,,0.00,weatherlink.com 1.10,2013-06-23 07:26:00,
2013-06-23 03:41:00,66.2,65.0,30.09,SSW,199,0.0,0.0,94,0.00,,,0.00,weatherlink.com 1.10,2013-06-23 07:41:00,
2013-06-23 03:56:00,66.2,65.0,30.09,SE,146,0.0,1.0,95,0.00,,,0.00,weatherlink.com 1.10,2013-06-23 07:56:00,
2013-06-23 04:11:00,66.1,65.0,30.09,SE,146,0.0,1.0,95,0.00,,,0.00,weatherlink.com 1.10,2013-06-23 08:11:00,
2013-06-23 04:26:00,65.9,65.0,30.10,NW,319,0.0,1.0,96,0.00,,,0.00,weatherlink.com 1.10,2013-06-23 08:26:00,
2013-06-23 04:41:00,66.1,65.0,30.10,WSW,240,0.0,1.0,95,0.00,,,0.00,weatherlink.com 1.10,2013-06-23 08:41:00,
2013-06-23 04:56:00,66.0,65.0,30.10,SW,232,1.0,2.0,96,0.00,,,0.00,weatherlink.com 1.10,2013-06-23 08:56:00,
2013-06-23 05:11:00,66.1,65.0,30.11,West,264,2.0,4.0,96,0.00,,,0.00,weatherlink.com 1.10,2013-06-23 09:11:00,
2013-06-23 05:26:00,66.2,65.0,30.11,West,278,0.0,2.0,95,0.00,,,0.00,weatherlink.com 1.10,2013-06-23 09:26:00,
2013-06-23 05:41:00,66.3,65.0,30.11,North,351,0.0,2.0,95,0.00,,,0.00,weatherlink.com 1.10,2013-06-23 09:41:00,
2013-06-23 05:56:00,66.3,65.0,30.12,West,259,0.0,1.0,95,0.00,,,0.00,weatherlink.com 1.10,2013-06-23 09:56:00,
2013-06-23 06:11:00,66.3,65.0,30.12,WSW,249,0.0,1.0,95,0.00,,,0.00,weatherlink.com 1.10,2013-06-23 10:11:00,
2013-06-23 06:26:00,66.4,65.0,30.12,SW,229,0.0,2.0,95,0.00,,,0.00,weatherlink.com 1.10,2013-06-23 10:26:00,
2013-06-23 06:41:00,66.4,65.0,30.12,WSW,256,1.0,1.0,95,0.00,,,0.00,weatherlink.com 1.10,2013-06-23 10:41:00,
2013-06-23 06:56:00,66.6,65.0,30.12,West,274,0.0,2.0,95,0.00,,,0.00,weatherlink.com 1.10,2013-06-23 10:56:00,
2013-06-23 07:11:00,67.1,66.0,30.13,West,271,0.0,2.0,95,0.00,,,0.00,weatherlink.com 1.10,2013-06-23 11:11:00,
2013-06-23 07:26:00,67.6,66.0,30.14,SW,236,0.0,2.0,94,0.00,,,0.00,weatherlink.com 1.10,2013-06-23 11:26:00,
2013-06-23 07:41:00,68.7,66.0,30.14,NW,308,0.0,3.0,91,0.00,,,0.00,weatherlink.com 1.10,2013-06-23 11:41:00,
2013-06-23 07:56:00,69.4,66.0,30.14,NW,314,2.0,3.0,89,0.00,,,0.00,weatherlink.com 1.10,2013-06-23 11:56:00,
2013-06-23 08:11:00,70.1,67.0,30.14,NW,312,3.0,3.0,88,0.00,,,0.00,weatherlink.com 1.10,2013-06-23 12:11:00,
2013-06-23 08:26:00,70.7,67.0,30.14,West,259,0.0,3.0,87,0.00,,,0.00,weatherlink.com 1.10,2013-06-23 12:26:00,
2013-06-23 08:41:00,71.2,67.0,30.14,SSW,212,0.0,2.0,86,0.00,,,0.00,weatherlink.com 1.10,2013-06-23 12:41:00,
2013-06-23 08:56:00,72.1,67.0,30.15,SW,229,0.0,3.0,85,0.00,,,0.00,weatherlink.com 1.10,2013-06-23 12:56:00,
2013-06-23 09:12:00,72.7,68.0,30.15,SSE,163,2.0,3.0,84,0.00,,,0.00,weatherlink.com 1.10,2013-06-23 13:12:00,
2013-06-23 09:27:00,73.3,68.0,30.15,WSW,253,0.0,3.0,82,0.00,,,0.00,weatherlink.com 1.10,2013-06-23 13:27:00,
2013-06-23 09:42:00,73.9,68.0,30.15,SW,221,0.0,2.0,81,0.00,,,0.00,weatherlink.com 1.10,2013-06-23 13:42:00,
2013-06-23 09:57:00,75.4,68.0,30.14,ESE,121,0.0,1.0,78,0.00,,,0.00,weatherlink.com 1.10,2013-06-23 13:57:00,
2013-06-23 10:12:00,74.8,69.0,30.14,South,189,2.0,3.0,82,0.00,,,0.00,weatherlink.com 1.10,2013-06-23 14:12:00,
2013-06-23 10:27:00,75.1,69.0,30.14,SSE,149,3.0,4.0,81,0.00,,,0.00,weatherlink.com 1.10,2013-06-23 14:27:00,
2013-06-23 10:42:00,76.1,69.0,30.14,NE,39,0.0,5.0,78,0.00,,,0.00,weatherlink.com 1.10,2013-06-23 14:42:00,
2013-06-23 10:57:00,78.7,69.0,30.14,East,94,0.0,5.0,73,0.00,,,0.00,weatherlink.com 1.10,2013-06-23 14:57:00,
2013-06-23 11:12:00,80.5,69.0,30.14,SE,126,5.0,8.0,67,0.00,,,0.00,weatherlink.com 1.10,2013-06-23 15:12:00,
2013-06-23 11:27:00,82.1,70.0,30.14,WSW,242,1.0,7.0,66,0.00,,,0.00,weatherlink.com 1.10,2013-06-23 15:27:00,
2013-06-23 11:42:00,83.1,69.0,30.13,SSW,208,3.0,7.0,63,0.00,,,0.00,weatherlink.com 1.10,2013-06-23 15:42:00,
2013-06-23 11:57:00,81.9,68.0,30.12,NE,53,2.0,8.0,63,0.00,,,0.00,weatherlink.com 1.10,2013-06-23 15:57:00,
2013-06-23 12:12:00,80.9,68.0,30.12,NE,44,4.0,6.0,64,0.00,,,0.00,weatherlink.com 1.10,2013-06-23 16:12:00,
2013-06-23 12:27:00,81.1,67.0,30.12,SSE,150,5.0,8.0,63,0.00,,,0.00,weatherlink.com 1.10,2013-06-23 16:27:00,
2013-06-23 12:42:00,83.3,67.0,30.12,SE,127,4.0,7.0,58,0.00,,,0.00,weatherlink.com 1.10,2013-06-23 16:42:00,
2013-06-23 12:57:00,86.8,65.0,30.12,SE,139,2.0,5.0,49,0.00,,,0.00,weatherlink.com 1.10,2013-06-23 16:57:00,
2013-06-23 13:12:00,85.6,66.0,30.11,SSE,166,5.0,10.0,52,0.00,,,0.00,weatherlink.com 1.10,2013-06-23 17:12:00,
2013-06-23 13:27:00,83.8,64.0,30.11,NW,313,1.0,8.0,52,0.00,,,0.00,weatherlink.com 1.10,2013-06-23 17:27:00,
2013-06-23 13:42:00,86.3,65.0,30.10,ESE,119,5.0,8.0,49,0.00,,,0.00,weatherlink.com 1.10,2013-06-23 17:42:00,
2013-06-23 13:57:00,83.9,63.0,30.10,ENE,75,3.0,8.0,50,0.00,,,0.00,weatherlink.com 1.10,2013-06-23 17:57:00,
2013-06-23 14:12:00,82.4,66.0,30.09,SE,127,9.0,10.0,57,0.00,,,0.00,weatherlink.com 1.10,2013-06-23 18:12:00,
2013-06-23 14:27:00,82.7,66.0,30.09,SE,145,10.0,11.0,58,0.00,,,0.00,weatherlink.com 1.10,2013-06-23 18:27:00,
2013-06-23 14:42:00,82.6,67.0,30.09,ESE,117,9.0,9.0,59,0.00,,,0.00,weatherlink.com 1.10,2013-06-23 18:42:00,
2013-06-23 14:57:00,83.3,65.0,30.08,SE,131,11.0,13.0,55,0.00,,,0.00,weatherlink.com 1.10,2013-06-23 18:57:00,
2013-06-23 15:12:00,84.0,64.0,30.07,SSE,152,2.0,11.0,52,0.00,,,0.00,weatherlink.com 1.10,2013-06-23 19:12:00,
2013-06-23 15:27:00,84.6,64.0,30.07,ESE,104,2.0,11.0,50,0.00,,,0.00,weatherlink.com 1.10,2013-06-23 19:27:00,
2013-06-23 15:42:00,86.0,61.0,30.07,ESE,122,1.0,8.0,43,0.00,,,0.00,weatherlink.com 1.10,2013-06-23 19:42:00,
2013-06-23 15:57:00,86.6,64.0,30.06,SSE,157,3.0,9.0,47,0.00,,,0.00,weatherlink.com 1.10,2013-06-23 19:57:00,
2013-06-23 16:27:00,85.9,63.0,30.05,SE,141,6.0,11.0,46,0.00,,,0.00,weatherlink.com 1.10,2013-06-23 20:27:00,
2013-06-23 16:42:00,86.1,63.0,30.05,SSE,166,4.0,10.0,46,0.00,,,0.00,weatherlink.com 1.10,2013-06-23 20:42:00,
2013-06-23 16:57:00,85.5,62.0,30.05,ESE,115,8.0,10.0,45,0.00,,,0.00,weatherlink.com 1.10,2013-06-23 20:57:00,
2013-06-23 17:12:00,86.5,62.0,30.05,SE,137,2.0,9.0,44,0.00,,,0.00,weatherlink.com 1.10,2013-06-23 21:12:00,
2013-06-23 17:27:00,86.5,63.0,30.04,East,98,5.0,9.0,46,0.00,,,0.00,weatherlink.com 1.10,2013-06-23 21:27:00,
2013-06-23 17:44:00,85.8,64.0,30.05,SSW,194,6.0,10.0,49,0.00,,,0.00,weatherlink.com 1.10,2013-06-23 21:44:00,
2013-06-23 17:58:00,85.9,63.0,30.04,SSE,153,4.0,9.0,47,0.00,,,0.00,weatherlink.com 1.10,2013-06-23 21:58:00,
2013-06-23 18:13:00,87.1,65.0,30.04,SSW,197,0.0,7.0,48,0.00,,,0.00,weatherlink.com 1.10,2013-06-23 22:13:00,
2013-06-23 18:28:00,86.5,65.0,30.04,SSW,207,2.0,7.0,48,0.00,,,0.00,weatherlink.com 1.10,2013-06-23 22:28:00,
2013-06-23 18:43:00,86.8,67.0,30.05,SE,144,6.0,8.0,51,0.00,,,0.00,weatherlink.com 1.10,2013-06-23 22:43:00,
2013-06-23 18:58:00,85.0,66.0,30.05,SE,128,7.0,12.0,53,0.00,,,0.00,weatherlink.com 1.10,2013-06-23 22:58:00,
2013-06-23 19:13:00,83.1,66.0,30.05,SE,137,4.0,8.0,57,0.00,,,0.00,weatherlink.com 1.10,2013-06-23 23:13:00,
2013-06-23 19:28:00,82.4,66.0,30.05,South,170,4.0,10.0,58,0.00,,,0.00,weatherlink.com 1.10,2013-06-23 23:28:00,
2013-06-23 19:43:00,81.5,67.0,30.05,South,174,3.0,8.0,62,0.00,,,0.00,weatherlink.com 1.10,2013-06-23 23:43:00,
2013-06-23 19:58:00,80.8,68.0,30.05,South,176,3.0,6.0,66,0.00,,,0.00,weatherlink.com 1.10,2013-06-23 23:58:00,
2013-06-23 20:13:00,80.1,69.0,30.05,South,176,4.0,10.0,69,0.00,,,0.00,weatherlink.com 1.10,2013-06-24 00:13:00,
2013-06-23 20:28:00,79.5,69.0,30.06,South,172,2.0,8.0,71,0.00,,,0.00,weatherlink.com 1.10,2013-06-24 00:28:00,
2013-06-23 20:43:00,78.3,69.0,30.06,NNW,333,6.0,9.0,73,0.00,,,0.00,weatherlink.com 1.10,2013-06-24 00:43:00,
2013-06-23 20:58:00,76.7,68.0,30.07,WNW,295,0.0,8.0,75,0.00,,,0.00,weatherlink.com 1.10,2013-06-24 00:58:00,
2013-06-23 21:13:00,75.0,68.0,30.08,NW,312,3.0,11.0,79,0.00,,,0.00,weatherlink.com 1.10,2013-06-24 01:13:00,
2013-06-23 21:28:00,73.3,64.0,30.08,NNW,327,5.0,9.0,73,0.00,,,0.00,weatherlink.com 1.10,2013-06-24 01:28:00,
2013-06-23 21:43:00,72.6,65.0,30.10,NW,309,5.0,16.0,78,0.00,,,0.00,weatherlink.com 1.10,2013-06-24 01:43:00,
2013-06-23 21:58:00,72.3,65.0,30.12,WNW,297,16.0,19.0,77,0.00,,,0.00,weatherlink.com 1.10,2013-06-24 01:58:00,
2013-06-23 22:13:00,71.9,63.0,30.11,WNW,284,3.0,6.0,74,0.00,,,0.00,weatherlink.com 1.10,2013-06-24 02:13:00,
2013-06-23 22:28:00,70.1,64.0,30.12,NE,51,0.0,8.0,82,0.07,,,0.07,weatherlink.com 1.10,2013-06-24 02:28:00,
2013-06-23 22:43:00,68.1,65.0,30.12,East,89,1.0,3.0,88,0.07,,,0.07,weatherlink.com 1.10,2013-06-24 02:43:00,
2013-06-23 22:58:00,68.0,64.0,30.12,West,271,6.0,7.0,88,0.09,,,0.09,weatherlink.com 1.10,2013-06-24 02:58:00,
2013-06-23 23:13:00,69.7,65.0,30.10,NNW,327,4.0,5.0,84,0.23,,,0.23,weatherlink.com 1.10,2013-06-24 03:13:00,
2013-06-23 23:28:00,67.5,65.0,30.11,SW,215,0.0,8.0,91,0.17,,,0.24,weatherlink.com 1.10,2013-06-24 03:28:00,
2013-06-23 23:43:00,66.7,65.0,30.11,SW,228,1.0,3.0,93,0.17,,,0.24,weatherlink.com 1.10,2013-06-24 03:43:00,
2013-06-23 23:58:00,66.2,65.0,30.12,South,173,1.0,6.0,94,0.13,,,0.24,weatherlink.com 1.10,2013-06-24 03:58:00,